« Back
NWS Peachtree City, Ga » Text Product » MCN Terminal Aerodrome Forecast


Printer-friendly Version
Current Version              Previous Versions:   1  2  3  4  5  6  7  8  9  

Terminal Aerodrome Forecast

207
FTUS42 KFFC 220500
TAFMCN
TAF
KMCN 220532Z 2206/2306 00000KT 6SM -RA BR SCT025 BKN080
     FM220800 00000KT 4SM BR SCT005 BKN015
     FM221000 VRB03KT 2SM BR BKN005
     FM221400 07003KT 6SM BR SCT007 BKN012
     FM221600 07005KT P6SM VCSH SCT020 BKN035
      TEMPO 2219/2223 5SM -TSRA BR BKN015CB
     FM230000 00000KT P6SM SCT040 BKN120=

USA.gov is the U.S. government's official web portal to all federal, state and local government web resources and services.